createdAt,value
2018-02-22T00:02:15.992Z,-0.70
2018-02-22T00:04:42.924Z,-0.70
2018-02-22T00:07:09.916Z,-0.60
2018-02-22T00:09:36.079Z,-0.60
2018-02-22T00:12:02.288Z,-0.60
2018-02-22T00:14:28.487Z,-0.70
2018-02-22T00:16:54.775Z,-0.70
2018-02-22T00:19:21.727Z,-0.70
2018-02-22T00:21:48.671Z,-0.70
2018-02-22T00:24:15.597Z,-0.70
2018-02-22T00:26:41.775Z,-0.70
2018-02-22T00:29:08.039Z,-0.70
2018-02-22T00:31:34.217Z,-0.70
2018-02-22T00:34:00.412Z,-0.70
2018-02-22T00:36:27.337Z,-0.80
2018-02-22T00:38:53.544Z,-0.80
2018-02-22T00:41:19.721Z,-0.80
2018-02-22T00:43:46.671Z,-0.80
2018-02-22T00:46:12.845Z,-0.80
2018-02-22T00:48:39.078Z,-0.80
2018-02-22T00:51:05.275Z,-0.90
2018-02-22T00:53:31.474Z,-0.90
2018-02-22T00:55:57.687Z,-0.90
2018-02-22T00:58:24.604Z,-0.90
2018-02-22T01:00:50.815Z,-0.90
2018-02-22T01:03:17.144Z,-0.90
2018-02-22T01:05:43.329Z,-0.90
2018-02-22T01:08:10.271Z,-0.80
2018-02-22T01:10:36.527Z,-0.80
2018-02-22T01:13:02.726Z,-0.80
2018-02-22T01:15:28.925Z,-0.80
2018-02-22T01:17:55.109Z,-0.90
2018-02-22T01:20:21.327Z,-0.90
2018-02-22T01:22:47.533Z,-0.90
2018-02-22T01:25:13.733Z,-0.80
2018-02-22T01:27:39.926Z,-0.90
2018-02-22T01:30:06.142Z,-0.90
2018-02-22T01:32:32.424Z,-0.90
2018-02-22T01:34:58.612Z,-0.80
2018-02-22T01:37:31.802Z,-0.80
2018-02-22T01:39:57.995Z,-0.80
2018-02-22T01:42:24.187Z,-0.80
2018-02-22T01:44:50.436Z,-0.80
2018-02-22T01:47:17.372Z,-0.80
2018-02-22T01:49:44.342Z,-0.70
2018-02-22T01:52:10.590Z,-0.70
2018-02-22T01:54:36.814Z,-0.70
2018-02-22T01:57:03.029Z,-0.70
2018-02-22T01:59:29.257Z,-0.70
2018-02-22T02:01:55.460Z,-0.70
2018-02-22T02:04:21.740Z,-0.60
2018-02-22T02:06:47.945Z,-0.60
2018-02-22T02:09:14.119Z,-0.60
2018-02-22T02:11:40.320Z,-0.70
2018-02-22T02:14:07.254Z,-0.70
2018-02-22T02:16:33.431Z,-0.70
2018-02-22T02:19:00.382Z,-0.70
2018-02-22T02:21:26.573Z,-0.80
2018-02-22T02:23:52.811Z,-0.80
2018-02-22T02:26:19.035Z,-0.80
2018-02-22T02:28:45.241Z,-0.80
2018-02-22T02:31:11.465Z,-0.90
2018-02-22T02:33:37.737Z,-0.90
2018-02-22T02:36:04.694Z,-1.00
2018-02-22T02:38:31.612Z,-1.10
2018-02-22T02:40:58.581Z,-1.20
2018-02-22T02:43:24.754Z,-1.20
2018-02-22T02:45:50.983Z,-1.20
2018-02-22T02:48:17.188Z,-1.20
2018-02-22T02:50:43.446Z,-1.30
2018-02-22T02:53:09.616Z,-1.30
2018-02-22T02:55:35.812Z,-1.30
2018-02-22T02:58:02.031Z,-1.30
2018-02-22T03:00:28.237Z,-1.30
2018-02-22T03:02:54.560Z,-1.40
2018-02-22T03:05:20.766Z,-1.40
2018-02-22T03:07:46.978Z,-1.40
2018-02-22T03:10:13.892Z,-1.40
2018-02-22T03:12:40.182Z,-1.40
2018-02-22T03:15:06.451Z,-1.40
2018-02-22T03:17:32.700Z,-1.40
2018-02-22T03:19:58.906Z,-1.50
2018-02-22T03:22:25.131Z,-1.50
2018-02-22T03:24:51.359Z,-1.40
2018-02-22T03:27:18.554Z,-1.40
2018-02-22T03:29:44.927Z,-1.40
2018-02-22T03:32:11.301Z,-1.40
2018-02-22T03:34:37.698Z,-1.40
2018-02-22T03:37:04.054Z,-1.40
2018-02-22T03:39:30.509Z,-1.50
2018-02-22T03:41:56.968Z,-1.50
2018-02-22T03:44:24.116Z,-1.50
2018-02-22T03:46:50.436Z,-1.50
2018-02-22T03:49:16.901Z,-1.50
2018-02-22T03:51:43.231Z,-1.50
2018-02-22T03:54:09.732Z,-1.60
2018-02-22T03:56:36.138Z,-1.60
2018-02-22T03:59:02.579Z,-1.70
2018-02-22T04:01:28.992Z,-1.70
2018-02-22T04:03:55.409Z,-1.70
2018-02-22T04:06:21.782Z,-1.70
2018-02-22T04:08:48.069Z,-1.70
2018-02-22T04:11:14.521Z,-1.70
2018-02-22T04:13:41.029Z,-1.70
2018-02-22T04:16:07.470Z,-1.80
2018-02-22T04:18:33.886Z,-1.80
2018-02-22T04:21:00.357Z,-1.90
2018-02-22T04:23:26.831Z,-2.00
2018-02-22T04:25:53.970Z,-2.00
2018-02-22T04:28:20.362Z,-2.00
2018-02-22T04:30:46.646Z,-2.00
2018-02-22T04:33:13.082Z,-1.90
2018-02-22T04:35:39.491Z,-1.90
2018-02-22T04:38:05.903Z,-1.90
2018-02-22T04:40:32.362Z,-1.90
2018-02-22T04:42:58.747Z,-1.90
2018-02-22T04:45:25.835Z,-1.90
2018-02-22T04:47:52.890Z,-1.80
2018-02-22T04:50:19.998Z,-1.90
2018-02-22T04:52:46.407Z,-1.90
2018-02-22T04:55:12.872Z,-1.90
2018-02-22T04:57:39.268Z,-1.90
2018-02-22T05:00:05.706Z,-1.90
2018-02-22T05:02:32.066Z,-1.90
2018-02-22T05:04:58.515Z,-1.90
2018-02-22T05:07:24.869Z,-2.00
2018-02-22T05:09:52.006Z,-2.20
2018-02-22T05:12:19.301Z,-2.20
2018-02-22T05:14:45.652Z,-2.30
2018-02-22T05:17:12.054Z,-2.30
2018-02-22T05:19:38.428Z,-2.30
2018-02-22T05:22:04.865Z,-2.20
2018-02-22T05:24:31.334Z,-2.20
2018-02-22T05:26:57.808Z,-2.20
2018-02-22T05:29:24.231Z,-2.20
2018-02-22T05:31:50.655Z,-2.30
2018-02-22T05:34:17.052Z,-2.30
2018-02-22T05:36:43.463Z,-2.30
2018-02-22T05:39:09.901Z,-2.30
2018-02-22T05:41:36.998Z,-2.30
2018-02-22T05:44:10.522Z,-2.30
2018-02-22T05:46:36.880Z,-2.30
2018-02-22T05:49:03.289Z,-2.30
2018-02-22T05:51:29.751Z,-2.30
2018-02-22T05:53:56.841Z,-2.20
2018-02-22T05:56:23.201Z,-2.20
2018-02-22T05:58:49.548Z,-2.20
2018-02-22T06:01:16.671Z,-2.20
2018-02-22T06:03:43.047Z,-2.30
2018-02-22T06:06:09.389Z,-2.20
2018-02-22T06:08:35.741Z,-2.20
2018-02-22T06:11:02.129Z,-2.20
2018-02-22T06:13:28.556Z,-2.20
2018-02-22T06:15:54.893Z,-2.20
2018-02-22T06:18:21.399Z,-2.20
2018-02-22T06:20:47.720Z,-2.10
2018-02-22T06:23:14.152Z,-2.10
2018-02-22T06:25:41.246Z,-2.20
2018-02-22T06:28:07.652Z,-2.20
2018-02-22T06:30:34.830Z,-2.20
2018-02-22T06:33:01.273Z,-2.20
2018-02-22T06:35:27.674Z,-2.20
2018-02-22T06:37:54.000Z,-2.20
2018-02-22T06:40:20.389Z,-2.20
2018-02-22T06:42:46.813Z,-2.20
2018-02-22T06:45:13.335Z,-2.20
2018-02-22T06:47:39.743Z,-2.20
2018-02-22T06:50:06.241Z,-2.20
2018-02-22T06:52:32.657Z,-2.30
2018-02-22T06:54:59.053Z,-2.30
2018-02-22T06:57:25.462Z,-2.30
2018-02-22T06:59:52.613Z,-2.40
2018-02-22T07:02:19.006Z,-2.40
2018-02-22T07:04:45.508Z,-2.40
2018-02-22T07:07:11.895Z,-2.30
2018-02-22T07:09:38.279Z,-2.20
2018-02-22T07:12:04.660Z,-2.20
2018-02-22T07:14:31.077Z,-2.20
2018-02-22T07:16:58.060Z,-2.10
2018-02-22T07:19:24.568Z,-2.10
2018-02-22T07:21:51.129Z,-2.00
2018-02-22T07:24:17.557Z,-1.90
2018-02-22T07:26:43.970Z,-1.90
2018-02-22T07:29:11.175Z,-1.80
2018-02-22T07:31:37.592Z,-1.80
2018-02-22T07:34:04.070Z,-1.80
2018-02-22T07:36:31.341Z,-1.70
2018-02-22T07:38:57.704Z,-1.80
2018-02-22T07:41:24.180Z,-1.70
2018-02-22T07:43:50.544Z,-1.60
2018-02-22T07:46:16.971Z,-1.60
2018-02-22T07:48:44.173Z,-1.50
2018-02-22T07:51:10.577Z,-1.50
2018-02-22T07:53:37.062Z,-1.50
2018-02-22T07:56:04.242Z,-1.40
2018-02-22T07:58:30.624Z,-1.40
2018-02-22T08:00:57.099Z,-1.40
2018-02-22T08:03:23.514Z,-1.30
2018-02-22T08:05:50.552Z,-1.20
2018-02-22T08:08:16.904Z,-1.30
2018-02-22T08:10:43.254Z,-1.20
2018-02-22T08:13:09.830Z,-1.20
2018-02-22T08:15:36.296Z,-1.20
2018-02-22T08:18:02.685Z,-1.20
2018-02-22T08:20:28.952Z,-1.20
2018-02-22T08:22:55.271Z,-1.20
2018-02-22T08:25:21.681Z,-1.10
2018-02-22T08:27:48.044Z,-1.10
2018-02-22T08:30:15.203Z,-0.90
2018-02-22T08:32:41.654Z,-0.90
2018-02-22T08:35:08.137Z,-0.80
2018-02-22T08:37:34.568Z,-0.70
2018-02-22T08:40:00.964Z,-0.60
2018-02-22T08:42:27.408Z,-0.50
2018-02-22T08:44:53.860Z,-0.40
2018-02-22T08:47:20.256Z,-0.30
2018-02-22T08:49:46.654Z,-0.20
2018-02-22T08:52:13.087Z,0.00
2018-02-22T08:54:40.173Z,0.10
2018-02-22T08:57:06.446Z,0.10
2018-02-22T08:59:32.808Z,0.10
2018-02-22T09:01:59.221Z,0.10
2018-02-22T09:04:26.344Z,0.20
2018-02-22T09:06:53.544Z,0.20
2018-02-22T09:09:19.883Z,0.20
2018-02-22T09:11:46.254Z,0.30
2018-02-22T09:14:12.677Z,0.30
2018-02-22T09:16:38.946Z,0.30
2018-02-22T09:19:05.322Z,0.50
2018-02-22T09:21:32.440Z,0.60
2018-02-22T09:23:59.573Z,0.80
2018-02-22T09:26:26.932Z,0.90
2018-02-22T09:28:53.374Z,0.90
2018-02-22T09:31:20.524Z,1.10
2018-02-22T09:33:46.943Z,1.10
2018-02-22T09:36:14.087Z,1.40
2018-02-22T09:38:41.137Z,1.50
2018-02-22T09:41:07.427Z,1.50
2018-02-22T09:43:34.598Z,1.50
2018-02-22T09:46:00.945Z,1.50
2018-02-22T09:48:27.352Z,1.40
2018-02-22T09:50:53.799Z,1.30
2018-02-22T09:53:20.906Z,1.30
2018-02-22T09:55:47.292Z,1.30
2018-02-22T09:58:13.670Z,1.30
2018-02-22T10:00:40.050Z,1.40
2018-02-22T10:03:06.389Z,1.50
2018-02-22T10:05:33.516Z,1.50
2018-02-22T10:07:59.933Z,1.50
2018-02-22T10:10:26.299Z,1.60
2018-02-22T10:12:53.508Z,1.90
2018-02-22T10:15:20.516Z,2.20
2018-02-22T10:17:46.846Z,2.20
2018-02-22T10:20:13.158Z,2.40
2018-02-22T10:22:39.487Z,2.50
2018-02-22T10:25:05.857Z,2.50
2018-02-22T10:27:32.357Z,2.40
2018-02-22T10:29:58.697Z,2.60
2018-02-22T10:32:25.042Z,2.90
2018-02-22T10:34:51.313Z,4.10
2018-02-22T10:37:17.630Z,4.80
2018-02-22T10:39:43.993Z,4.30
2018-02-22T10:42:10.354Z,4.80
2018-02-22T10:44:36.745Z,5.80
2018-02-22T10:47:03.867Z,6.90
2018-02-22T10:49:30.139Z,6.90
2018-02-22T10:51:56.477Z,8.10
2018-02-22T10:54:22.917Z,9.60
2018-02-22T10:56:49.388Z,8.50
2018-02-22T10:59:15.805Z,8.40
2018-02-22T11:01:48.272Z,7.20
2018-02-22T11:04:14.646Z,6.70
2018-02-22T11:06:41.855Z,5.00
2018-02-22T11:09:08.230Z,4.90
2018-02-22T11:11:34.589Z,4.80
2018-02-22T11:14:00.985Z,5.10
2018-02-22T11:16:27.367Z,5.10
2018-02-22T11:18:53.729Z,4.60
2018-02-22T11:21:20.171Z,4.50
2018-02-22T11:23:46.585Z,4.40
2018-02-22T11:26:12.986Z,4.40
2018-02-22T11:28:39.370Z,4.30
2018-02-22T11:31:06.673Z,4.60
2018-02-22T11:33:34.365Z,4.60
2018-02-22T11:36:00.686Z,4.60
2018-02-22T11:38:27.099Z,4.60
2018-02-22T11:40:53.436Z,4.50
2018-02-22T11:43:19.731Z,4.60
2018-02-22T11:45:46.118Z,4.80
2018-02-22T11:48:12.532Z,4.50
2018-02-22T11:50:39.567Z,3.80
2018-02-22T11:53:06.027Z,3.80
2018-02-22T11:55:32.488Z,3.60
2018-02-22T11:57:59.695Z,3.40
2018-02-22T12:00:26.078Z,3.40
2018-02-22T12:02:53.252Z,3.30
2018-02-22T12:05:19.560Z,3.30
2018-02-22T12:07:45.934Z,3.30
2018-02-22T12:10:12.371Z,3.30
2018-02-22T12:12:39.624Z,3.30
2018-02-22T12:15:05.939Z,3.30
2018-02-22T12:17:32.342Z,3.20
2018-02-22T12:20:00.313Z,3.30
2018-02-22T12:22:26.692Z,3.30
2018-02-22T12:24:53.051Z,3.40
2018-02-22T12:27:19.430Z,3.40
2018-02-22T12:29:45.829Z,3.40
2018-02-22T12:32:12.193Z,3.40
2018-02-22T12:34:39.243Z,3.30
2018-02-22T12:37:05.652Z,3.30
2018-02-22T12:39:32.888Z,3.30
2018-02-22T12:41:59.974Z,3.30
2018-02-22T12:44:26.509Z,3.30
2018-02-22T12:46:52.752Z,3.30
2018-02-22T12:49:19.895Z,3.40
2018-02-22T12:51:46.310Z,3.40
2018-02-22T12:54:12.701Z,3.30
2018-02-22T12:56:39.040Z,3.20
2018-02-22T12:59:05.424Z,3.20
2018-02-22T13:01:31.844Z,3.20
2018-02-22T13:03:58.217Z,3.20
2018-02-22T13:06:24.551Z,3.20
2018-02-22T13:08:51.747Z,3.30
2018-02-22T13:11:18.123Z,3.40
2018-02-22T13:13:45.273Z,3.30
2018-02-22T13:16:12.452Z,3.30
2018-02-22T13:18:38.762Z,3.30
2018-02-22T13:21:05.120Z,3.20
2018-02-22T13:23:31.498Z,3.20
2018-02-22T13:25:57.994Z,3.30
2018-02-22T13:28:24.380Z,3.40
2018-02-22T13:30:51.543Z,3.40
2018-02-22T13:33:30.174Z,3.30
2018-02-22T13:35:56.546Z,3.30
2018-02-22T13:38:35.157Z,3.20
2018-02-22T13:41:01.632Z,3.10
2018-02-22T13:43:28.086Z,3.20
2018-02-22T13:45:54.447Z,3.20
2018-02-22T13:48:20.885Z,3.20
2018-02-22T13:50:59.553Z,3.30
2018-02-22T13:53:26.560Z,3.30
2018-02-22T13:55:52.949Z,3.30
2018-02-22T13:58:19.360Z,3.40
2018-02-22T14:00:58.778Z,3.30
2018-02-22T14:03:25.157Z,3.30
2018-02-22T14:05:51.566Z,3.30
2018-02-22T14:08:31.067Z,3.00
2018-02-22T14:10:57.465Z,3.00
2018-02-22T14:13:23.871Z,3.00
2018-02-22T14:15:51.040Z,2.90
2018-02-22T14:18:17.576Z,2.90
2018-02-22T14:20:43.881Z,2.90
2018-02-22T14:23:10.960Z,2.80
2018-02-22T14:25:37.322Z,2.80
2018-02-22T14:28:03.742Z,2.90
2018-02-22T14:30:30.091Z,2.90
2018-02-22T14:32:56.465Z,2.90
2018-02-22T14:35:22.818Z,2.90
2018-02-22T14:37:49.904Z,2.80
2018-02-22T14:40:16.989Z,2.80
2018-02-22T14:42:43.346Z,2.70
2018-02-22T14:45:09.738Z,2.70
2018-02-22T14:47:36.930Z,2.70
2018-02-22T14:50:03.180Z,2.70
2018-02-22T14:52:29.604Z,2.70
2018-02-22T14:54:56.633Z,2.70
2018-02-22T14:57:23.667Z,2.70
2018-02-22T14:59:50.755Z,2.70
2018-02-22T15:02:23.057Z,2.70
2018-02-22T15:04:49.417Z,2.60
2018-02-22T15:07:15.888Z,2.60
2018-02-22T15:09:43.030Z,2.60
2018-02-22T15:12:09.408Z,2.60
2018-02-22T15:14:35.859Z,2.60
2018-02-22T15:17:02.899Z,2.60
2018-02-22T15:19:29.966Z,2.50
2018-02-22T15:21:56.338Z,2.50
2018-02-22T15:24:22.764Z,2.50
2018-02-22T15:26:49.110Z,2.50
2018-02-22T15:29:15.524Z,2.40
2018-02-22T15:31:41.698Z,2.40
2018-02-22T15:34:08.693Z,2.30
2018-02-22T15:36:35.027Z,2.30
2018-02-22T15:39:01.433Z,2.30
2018-02-22T15:41:27.906Z,2.30
2018-02-22T15:43:54.331Z,2.20
2018-02-22T15:46:20.709Z,2.20
2018-02-22T15:48:47.008Z,2.20
2018-02-22T15:51:13.249Z,2.10
2018-02-22T15:53:39.623Z,2.10
2018-02-22T15:56:05.995Z,2.10
2018-02-22T15:58:33.091Z,2.00
2018-02-22T16:00:59.400Z,2.00
2018-02-22T16:03:25.773Z,2.00
2018-02-22T16:05:52.101Z,2.00
2018-02-22T16:08:18.536Z,1.90
2018-02-22T16:10:45.053Z,1.90
2018-02-22T16:13:12.231Z,1.90
2018-02-22T16:15:40.112Z,1.90
2018-02-22T16:18:07.109Z,1.90
2018-02-22T16:20:34.395Z,1.90
2018-02-22T16:23:01.618Z,1.80
2018-02-22T16:25:27.843Z,1.80
2018-02-22T16:27:54.133Z,1.70
2018-02-22T16:30:20.427Z,1.70
2018-02-22T16:32:46.814Z,1.70
2018-02-22T16:35:13.024Z,1.70
2018-02-22T16:37:39.175Z,1.70
2018-02-22T16:40:05.515Z,1.70
2018-02-22T16:42:31.687Z,1.70
2018-02-22T16:44:57.939Z,1.60
2018-02-22T16:47:24.823Z,1.60
2018-02-22T16:49:51.039Z,1.60
2018-02-22T16:52:17.303Z,1.60
2018-02-22T16:54:43.471Z,1.50
2018-02-22T16:57:10.407Z,1.50
2018-02-22T16:59:37.318Z,1.40
2018-02-22T17:02:03.495Z,1.40
2018-02-22T17:04:29.680Z,1.40
2018-02-22T17:06:55.940Z,1.30
2018-02-22T17:09:22.220Z,1.40
2018-02-22T17:11:48.379Z,1.40
2018-02-22T17:14:15.317Z,1.40
2018-02-22T17:16:41.503Z,1.40
2018-02-22T17:19:07.727Z,1.40
2018-02-22T17:21:33.973Z,1.40
2018-02-22T17:24:00.323Z,1.40
2018-02-22T17:26:32.695Z,1.40
2018-02-22T17:29:06.447Z,1.30
2018-02-22T17:31:38.778Z,1.30
2018-02-22T17:34:05.716Z,1.30
2018-02-22T17:36:33.722Z,1.30
2018-02-22T17:42:08.596Z,1.40
2018-02-22T17:44:38.747Z,1.30
2018-02-22T17:47:05.417Z,1.40
2018-02-22T17:49:31.680Z,1.40
2018-02-22T17:51:58.119Z,1.40
2018-02-22T17:54:24.401Z,1.30
2018-02-22T17:56:50.703Z,1.30
2018-02-22T17:59:16.989Z,1.30
2018-02-22T18:01:43.340Z,1.20
2018-02-22T18:04:10.302Z,1.20
2018-02-22T18:06:36.609Z,1.20
2018-02-22T18:09:02.882Z,1.20
2018-02-22T18:11:29.158Z,1.20
2018-02-22T18:13:55.504Z,1.10
2018-02-22T18:16:22.606Z,1.10
2018-02-22T18:18:48.870Z,1.10
2018-02-22T18:21:15.986Z,1.10
2018-02-22T18:23:42.269Z,1.00
2018-02-22T18:26:08.646Z,1.00
2018-02-22T18:28:34.937Z,1.00
2018-02-22T18:31:01.183Z,1.00
2018-02-22T18:33:27.489Z,1.00
2018-02-22T18:35:53.908Z,1.00
2018-02-22T18:38:20.901Z,1.00
2018-02-22T18:40:53.249Z,1.00
2018-02-22T18:43:25.596Z,1.00
2018-02-22T18:45:52.584Z,1.00
2018-02-22T18:48:18.812Z,1.00
2018-02-22T18:50:45.026Z,0.90
2018-02-22T18:53:11.292Z,0.90
2018-02-22T18:55:37.540Z,0.90
2018-02-22T18:58:03.812Z,0.80
2018-02-22T19:00:30.070Z,0.80
2018-02-22T19:02:56.353Z,0.80
2018-02-22T19:05:35.226Z,0.80
2018-02-22T19:08:01.526Z,0.80
2018-02-22T19:10:27.756Z,0.70
2018-02-22T19:12:53.993Z,0.70
2018-02-22T19:15:20.232Z,0.70
2018-02-22T19:17:46.618Z,0.70
2018-02-22T19:20:12.896Z,0.70
2018-02-22T19:22:39.113Z,0.70
2018-02-22T19:25:05.332Z,0.60
2018-02-22T19:27:31.560Z,0.60
2018-02-22T19:29:57.797Z,0.60
2018-02-22T19:32:24.017Z,0.50
2018-02-22T19:34:50.288Z,0.50
2018-02-22T19:37:17.256Z,0.50
2018-02-22T19:39:44.265Z,0.50
2018-02-22T19:42:10.526Z,0.40
2018-02-22T19:44:37.491Z,0.50
2018-02-22T19:47:03.744Z,0.50
2018-02-22T19:49:30.081Z,0.50
2018-02-22T19:51:56.356Z,0.50
2018-02-22T19:54:23.351Z,0.50
2018-02-22T19:56:49.739Z,0.40
2018-02-22T19:59:16.696Z,0.40
2018-02-22T20:01:42.952Z,0.40
2018-02-22T20:04:09.192Z,0.40
2018-02-22T20:06:35.404Z,0.40
2018-02-22T20:09:01.643Z,0.40
2018-02-22T20:11:27.869Z,0.40
2018-02-22T20:14:02.880Z,0.40
2018-02-22T20:16:31.121Z,0.30
2018-02-22T20:18:58.066Z,0.30
2018-02-22T20:21:25.000Z,0.30
2018-02-22T20:23:51.214Z,0.30
2018-02-22T20:26:17.434Z,0.40
2018-02-22T20:28:43.745Z,0.30
2018-02-22T20:31:10.001Z,0.40
2018-02-22T20:33:36.249Z,0.40
2018-02-22T20:36:03.203Z,0.40
2018-02-22T20:38:30.166Z,0.40
2018-02-22T20:40:56.344Z,0.40
2018-02-22T20:43:23.364Z,0.40
2018-02-22T20:45:49.586Z,0.40
2018-02-22T20:48:15.823Z,0.40
2018-02-22T20:50:42.128Z,0.40
2018-02-22T20:53:20.398Z,0.40
2018-02-22T20:55:48.263Z,0.40
2018-02-22T20:58:14.540Z,0.40
2018-02-22T21:00:40.763Z,0.50
2018-02-22T21:03:07.122Z,0.40
2018-02-22T21:05:33.354Z,0.40
2018-02-22T21:07:59.896Z,0.40
2018-02-22T21:10:26.086Z,0.40
2018-02-22T21:12:52.515Z,0.40
2018-02-22T21:15:19.061Z,0.40
2018-02-22T21:17:45.340Z,0.40
2018-02-22T21:20:11.568Z,0.40
2018-02-22T21:22:37.762Z,0.40
2018-02-22T21:25:04.034Z,0.40
2018-02-22T21:27:30.989Z,0.40
2018-02-22T21:29:57.253Z,0.40
2018-02-22T21:32:23.512Z,0.40
2018-02-22T21:34:49.864Z,0.40
2018-02-22T21:37:16.016Z,0.40
2018-02-22T21:39:42.298Z,0.40
2018-02-22T21:42:08.550Z,0.40
2018-02-22T21:44:35.530Z,0.40
2018-02-22T21:47:01.776Z,0.40
2018-02-22T21:49:28.031Z,0.40
2018-02-22T21:51:54.596Z,0.40
2018-02-22T21:54:21.533Z,0.40
2018-02-22T21:56:47.773Z,0.40
2018-02-22T21:59:13.984Z,0.50
2018-02-22T22:01:40.978Z,0.50
2018-02-22T22:04:07.218Z,0.50
2018-02-22T22:06:33.492Z,0.40
2018-02-22T22:09:00.513Z,0.40
2018-02-22T22:11:26.768Z,0.40
2018-02-22T22:13:52.977Z,0.40
2018-02-22T22:16:19.252Z,0.50
2018-02-22T22:18:45.459Z,0.40
2018-02-22T22:21:12.603Z,0.40
2018-02-22T22:23:39.573Z,0.40
2018-02-22T22:26:05.782Z,0.40
2018-02-22T22:28:32.739Z,0.40
2018-02-22T22:30:58.967Z,0.40
2018-02-22T22:33:25.203Z,0.40
2018-02-22T22:35:51.540Z,0.30
2018-02-22T22:38:17.743Z,0.30
2018-02-22T22:40:44.673Z,0.30
2018-02-22T22:43:11.618Z,0.30
2018-02-22T22:45:38.552Z,0.20
2018-02-22T22:48:04.949Z,0.20
2018-02-22T22:50:31.261Z,0.20
2018-02-22T22:52:57.724Z,0.20
2018-02-22T22:55:23.912Z,0.20
2018-02-22T22:57:50.221Z,0.20
2018-02-22T23:00:23.589Z,0.30
2018-02-22T23:02:49.889Z,0.30
2018-02-22T23:05:16.088Z,0.30
2018-02-22T23:07:42.321Z,0.20
2018-02-22T23:10:08.544Z,0.30
2018-02-22T23:12:34.805Z,0.30
2018-02-22T23:15:01.206Z,0.30
2018-02-22T23:17:27.515Z,0.30
2018-02-22T23:19:54.519Z,0.30
2018-02-22T23:22:20.726Z,0.20
2018-02-22T23:24:46.966Z,0.30
2018-02-22T23:27:13.181Z,0.20
2018-02-22T23:29:39.504Z,0.20
2018-02-22T23:32:05.729Z,0.20
2018-02-22T23:34:31.995Z,0.10
2018-02-22T23:36:58.193Z,0.10
2018-02-22T23:39:24.442Z,0.00
2018-02-22T23:44:53.712Z,0.00
2018-02-22T23:47:19.936Z,-0.10
2018-02-22T23:49:46.937Z,0.00
2018-02-22T23:52:13.993Z,0.00
2018-02-22T23:54:42.309Z,-0.10
2018-02-22T23:57:09.275Z,0.00
2018-02-22T23:59:35.544Z,-0.10
